sensor_id;sensor_type;location;lat;lon;timestamp;pressure;altitude;pressure_sealevel;temperature;humidity
818;BME280;391;51.052;6.954;2023-05-02T00:01:29;101152.53;;;13.89;79.93
818;BME280;391;51.052;6.954;2023-05-02T00:03:32;101149.09;;;13.90;79.70
818;BME280;391;51.052;6.954;2023-05-02T00:05:36;101134.06;;;13.81;79.79
818;BME280;391;51.052;6.954;2023-05-02T00:07:40;101183.41;;;14.00;79.69
818;BME280;391;51.052;6.954;2023-05-02T00:09:43;101177.78;;;13.84;79.37
818;BME280;391;51.052;6.954;2023-05-02T00:11:48;101181.09;;;13.76;79.89
818;BME280;391;51.052;6.954;2023-05-02T00:13:51;101181.03;;;13.72;79.78
818;BME280;391;51.052;6.954;2023-05-02T00:15:54;101182.63;;;13.67;79.86
818;BME280;391;51.052;6.954;2023-05-02T00:17:58;101194.91;;;13.68;79.87
818;BME280;391;51.052;6.954;2023-05-02T00:20:02;101172.69;;;13.52;79.99
818;BME280;391;51.052;6.954;2023-05-02T00:22:06;101192.91;;;13.58;79.99
818;BME280;391;51.052;6.954;2023-05-02T00:24:09;101192.91;;;13.58;79.99
818;BME280;391;51.052;6.954;2023-05-02T00:26:13;101174.22;;;13.44;79.94
818;BME280;391;51.052;6.954;2023-05-02T00:28:18;101197.16;;;13.53;79.96
818;BME280;391;51.052;6.954;2023-05-02T00:30:22;101187.38;;;13.46;79.86
818;BME280;391;51.052;6.954;2023-05-02T00:32:25;101188.97;;;13.41;80.04
818;BME280;391;51.052;6.954;2023-05-02T00:34:29;101191.44;;;13.33;79.93
818;BME280;391;51.052;6.954;2023-05-02T00:36:33;101191.38;;;13.32;80.19
818;BME280;391;51.052;6.954;2023-05-02T00:38:36;101199.22;;;13.30;80.00
818;BME280;391;51.052;6.954;2023-05-02T00:40:43;101154.53;;;12.91;80.48
818;BME280;391;51.052;6.954;2023-05-02T00:42:47;101179.72;;;12.88;80.79
818;BME280;391;51.052;6.954;2023-05-02T00:44:52;101090.88;;;12.27;80.92
818;BME280;391;51.052;6.954;2023-05-02T00:46:56;101182.63;;;12.65;81.34
818;BME280;391;51.052;6.954;2023-05-02T00:49:00;101217.03;;;12.81;81.83
818;BME280;391;51.052;6.954;2023-05-02T00:51:04;101215.81;;;12.68;82.18
818;BME280;391;51.052;6.954;2023-05-02T00:53:08;101214.94;;;12.67;82.40
818;BME280;391;51.052;6.954;2023-05-02T00:55:12;101210.59;;;12.68;82.54
818;BME280;391;51.052;6.954;2023-05-02T00:57:16;101198.06;;;12.56;82.50
818;BME280;391;51.052;6.954;2023-05-02T00:59:19;101223.09;;;12.78;82.47
818;BME280;391;51.052;6.954;2023-05-02T01:01:35;101221.13;;;12.69;82.38
818;BME280;391;51.052;6.954;2023-05-02T01:03:53;101221.97;;;12.70;82.81
818;BME280;391;51.052;6.954;2023-05-02T01:06:09;101225.53;;;12.72;82.78
818;BME280;391;51.052;6.954;2023-05-02T01:08:19;101223.50;;;12.62;82.84
818;BME280;391;51.052;6.954;2023-05-02T01:10:44;101226.38;;;12.71;82.78
818;BME280;391;51.052;6.954;2023-05-02T01:12:55;101231.66;;;12.72;82.69
818;BME280;391;51.052;6.954;2023-05-02T01:15:04;101214.56;;;12.54;82.77
818;BME280;391;51.052;6.954;2023-05-02T01:17:13;101233.22;;;12.66;82.80
818;BME280;391;51.052;6.954;2023-05-02T01:19:24;101234.84;;;12.62;82.56
818;BME280;391;51.052;6.954;2023-05-02T01:21:28;101238.22;;;12.58;82.68
818;BME280;391;51.052;6.954;2023-05-02T01:23:39;101242.38;;;12.52;82.93
818;BME280;391;51.052;6.954;2023-05-02T01:25:54;101242.28;;;12.47;83.04
818;BME280;391;51.052;6.954;2023-05-02T01:28:09;101246.47;;;12.42;82.82
818;BME280;391;51.052;6.954;2023-05-02T01:30:21;101244.88;;;12.47;83.00
818;BME280;391;51.052;6.954;2023-05-02T01:32:27;101254.38;;;12.44;82.74
818;BME280;391;51.052;6.954;2023-05-02T01:34:33;101255.94;;;12.39;83.03
818;BME280;391;51.052;6.954;2023-05-02T01:36:41;101255.09;;;12.40;83.38
818;BME280;391;51.052;6.954;2023-05-02T01:38:46;101260.28;;;12.38;83.22
818;BME280;391;51.052;6.954;2023-05-02T01:40:52;101246.19;;;12.33;83.25
818;BME280;391;51.052;6.954;2023-05-02T01:42:57;101251.50;;;12.36;83.38
818;BME280;391;51.052;6.954;2023-05-02T01:45:03;101256.09;;;12.43;83.22
818;BME280;391;51.052;6.954;2023-05-02T01:47:08;101265.56;;;12.40;83.17
818;BME280;391;51.052;6.954;2023-05-02T01:49:12;101270.09;;;12.45;83.06
818;BME280;391;51.052;6.954;2023-05-02T01:51:17;101255.13;;;12.41;82.95
818;BME280;391;51.052;6.954;2023-05-02T01:53:24;101272.44;;;12.36;83.13
818;BME280;391;51.052;6.954;2023-05-02T01:55:27;101267.94;;;12.32;83.22
818;BME280;391;51.052;6.954;2023-05-02T01:57:31;101269.66;;;12.32;83.27
818;BME280;391;51.052;6.954;2023-05-02T01:59:35;101287.13;;;12.31;83.52
818;BME280;391;51.052;6.954;2023-05-02T02:01:40;101279.25;;;12.31;83.49
818;BME280;391;51.052;6.954;2023-05-02T02:03:47;101287.56;;;12.18;83.98
818;BME280;391;51.052;6.954;2023-05-02T02:05:51;101291.66;;;12.10;84.45
818;BME280;391;51.052;6.954;2023-05-02T02:07:56;101290.00;;;12.12;84.69
818;BME280;391;51.052;6.954;2023-05-02T02:10:00;101288.16;;;12.09;85.05
818;BME280;391;51.052;6.954;2023-05-02T02:12:06;101292.56;;;12.10;85.25
818;BME280;391;51.052;6.954;2023-05-02T02:14:16;101296.06;;;12.11;85.76
818;BME280;391;51.052;6.954;2023-05-02T02:16:23;101302.13;;;12.10;85.86
818;BME280;391;51.052;6.954;2023-05-02T02:18:28;101304.78;;;12.11;85.64
818;BME280;391;51.052;6.954;2023-05-02T02:20:37;101303.94;;;12.12;86.17
818;BME280;391;51.052;6.954;2023-05-02T02:22:43;101258.72;;;11.87;86.22
818;BME280;391;51.052;6.954;2023-05-02T02:24:47;101303.63;;;12.03;86.36
818;BME280;391;51.052;6.954;2023-05-02T02:26:55;101304.50;;;12.02;86.96
818;BME280;391;51.052;6.954;2023-05-02T02:28:59;101288.63;;;11.96;86.82
818;BME280;391;51.052;6.954;2023-05-02T02:31:02;101303.50;;;11.99;87.05
818;BME280;391;51.052;6.954;2023-05-02T02:33:06;101305.31;;;12.01;87.26
818;BME280;391;51.052;6.954;2023-05-02T02:35:09;101308.28;;;12.12;87.00
818;BME280;391;51.052;6.954;2023-05-02T02:37:17;101302.38;;;12.17;86.77
818;BME280;391;51.052;6.954;2023-05-02T02:39:32;101312.94;;;12.22;86.52
818;BME280;391;51.052;6.954;2023-05-02T02:41:41;101310.56;;;12.28;86.58
818;BME280;391;51.052;6.954;2023-05-02T02:43:51;101318.59;;;12.34;86.46
818;BME280;391;51.052;6.954;2023-05-02T02:46:03;101325.00;;;12.45;86.27
818;BME280;391;51.052;6.954;2023-05-02T02:48:25;101312.81;;;12.46;86.20
818;BME280;391;51.052;6.954;2023-05-02T02:50:35;101321.75;;;12.52;86.01
818;BME280;391;51.052;6.954;2023-05-02T02:52:49;101298.84;;;12.45;85.94
818;BME280;391;51.052;6.954;2023-05-02T02:54:58;101329.69;;;12.55;85.83
818;BME280;391;51.052;6.954;2023-05-02T02:57:06;101324.31;;;12.51;85.50
818;BME280;391;51.052;6.954;2023-05-02T02:59:19;101322.63;;;12.53;85.74
818;BME280;391;51.052;6.954;2023-05-02T03:01:27;101225.03;;;11.96;85.46
818;BME280;391;51.052;6.954;2023-05-02T03:03:33;101277.31;;;12.24;85.46
818;BME280;391;51.052;6.954;2023-05-02T03:05:37;101328.69;;;12.50;85.55
818;BME280;391;51.052;6.954;2023-05-02T03:07:41;101325.19;;;12.51;85.39
818;BME280;391;51.052;6.954;2023-05-02T03:09:46;101342.03;;;12.59;85.54
818;BME280;391;51.052;6.954;2023-05-02T03:11:55;101335.00;;;12.58;85.17
818;BME280;391;51.052;6.954;2023-05-02T03:14:00;101352.41;;;12.56;85.32
818;BME280;391;51.052;6.954;2023-05-02T03:16:29;101345.47;;;12.58;85.25
818;BME280;391;51.052;6.954;2023-05-02T03:18:37;101343.78;;;12.60;85.36
818;BME280;391;51.052;6.954;2023-05-02T03:20:41;101346.41;;;12.60;85.22
818;BME280;391;51.052;6.954;2023-05-02T03:22:44;101342.81;;;12.57;85.16
818;BME280;391;51.052;6.954;2023-05-02T03:24:49;101354.22;;;12.59;85.38
818;BME280;391;51.052;6.954;2023-05-02T03:26:54;101337.63;;;12.58;85.36
818;BME280;391;51.052;6.954;2023-05-02T03:29:01;101340.47;;;12.66;85.11
818;BME280;391;51.052;6.954;2023-05-02T03:31:11;101337.06;;;12.68;85.04
818;BME280;391;51.052;6.954;2023-05-02T03:33:14;101352.06;;;12.74;85.02
818;BME280;391;51.052;6.954;2023-05-02T03:35:19;101349.31;;;12.69;85.18
818;BME280;391;51.052;6.954;2023-05-02T03:37:25;101357.09;;;12.68;84.95
818;BME280;391;51.052;6.954;2023-05-02T03:39:31;101353.47;;;12.63;85.20
818;BME280;391;51.052;6.954;2023-05-02T03:41:37;101356.22;;;12.67;84.78
818;BME280;391;51.052;6.954;2023-05-02T03:43:44;101361.44;;;12.67;85.13
818;BME280;391;51.052;6.954;2023-05-02T03:45:47;101363.16;;;12.67;85.23
818;BME280;391;51.052;6.954;2023-05-02T03:47:51;101349.97;;;12.62;85.13
818;BME280;391;51.052;6.954;2023-05-02T03:49:55;101328.59;;;12.47;85.15
818;BME280;391;51.052;6.954;2023-05-02T03:52:00;101356.19;;;12.66;85.27
818;BME280;391;51.052;6.954;2023-05-02T03:54:07;101356.84;;;12.60;85.01
818;BME280;391;51.052;6.954;2023-05-02T03:56:16;101360.16;;;12.53;85.35
818;BME280;391;51.052;6.954;2023-05-02T03:58:29;101373.31;;;12.56;85.65
818;BME280;391;51.052;6.954;2023-05-02T04:00:33;101368.84;;;12.52;85.60
818;BME280;391;51.052;6.954;2023-05-02T04:02:41;101368.47;;;12.42;85.76
818;BME280;391;51.052;6.954;2023-05-02T04:04:49;101368.56;;;12.45;86.43
818;BME280;391;51.052;6.954;2023-05-02T04:06:55;101366.06;;;12.48;86.11
818;BME280;391;51.052;6.954;2023-05-02T04:08:58;101372.28;;;12.51;86.33
818;BME280;391;51.052;6.954;2023-05-02T04:11:09;101276.38;;;11.95;86.01
818;BME280;391;51.052;6.954;2023-05-02T04:13:12;101376.13;;;12.62;86.31
818;BME280;391;51.052;6.954;2023-05-02T04:15:23;101380.47;;;12.62;86.17
818;BME280;391;51.052;6.954;2023-05-02T04:17:33;101384.00;;;12.64;86.01
818;BME280;391;51.052;6.954;2023-05-02T04:19:44;101376.13;;;12.62;86.10
818;BME280;391;51.052;6.954;2023-05-02T04:21:49;101378.75;;;12.62;86.16
818;BME280;391;51.052;6.954;2023-05-02T04:23:55;101386.59;;;12.62;86.03
818;BME280;391;51.052;6.954;2023-05-02T04:25:58;101380.31;;;12.57;86.15
818;BME280;391;51.052;6.954;2023-05-02T04:28:10;101381.44;;;12.65;86.08
818;BME280;391;51.052;6.954;2023-05-02T04:30:14;101386.78;;;12.68;86.19
818;BME280;391;51.052;6.954;2023-05-02T04:32:25;101398.22;;;12.72;85.99
818;BME280;391;51.052;6.954;2023-05-02T04:34:30;101397.44;;;12.74;86.01
818;BME280;391;51.052;6.954;2023-05-02T04:36:33;101399.16;;;12.74;85.94
818;BME280;391;51.052;6.954;2023-05-02T04:38:37;101391.09;;;12.66;85.99
818;BME280;391;51.052;6.954;2023-05-02T04:40:41;101410.34;;;12.70;86.17
818;BME280;391;51.052;6.954;2023-05-02T04:42:44;101397.19;;;12.67;86.12
818;BME280;391;51.052;6.954;2023-05-02T04:44:51;101395.47;;;12.67;86.05
818;BME280;391;51.052;6.954;2023-05-02T04:46:58;101410.56;;;12.76;86.15
818;BME280;391;51.052;6.954;2023-05-02T04:49:03;101398.97;;;12.68;86.00
818;BME280;391;51.052;6.954;2023-05-02T04:51:08;101395.38;;;12.64;86.00
818;BME280;391;51.052;6.954;2023-05-02T04:53:12;101415.81;;;12.76;85.81
818;BME280;391;51.052;6.954;2023-05-02T04:55:15;101378.50;;;12.55;85.87
818;BME280;391;51.052;6.954;2023-05-02T04:57:19;101422.78;;;12.77;85.85
818;BME280;391;51.052;6.954;2023-05-02T04:59:32;101426.31;;;12.78;85.82
818;BME280;391;51.052;6.954;2023-05-02T05:01:37;101434.31;;;12.82;85.79
818;BME280;391;51.052;6.954;2023-05-02T05:03:42;101430.81;;;12.82;85.76
818;BME280;391;51.052;6.954;2023-05-02T05:05:48;101433.16;;;12.74;85.78
818;BME280;391;51.052;6.954;2023-05-02T05:07:54;101441.16;;;12.79;86.08
818;BME280;391;51.052;6.954;2023-05-02T05:09:59;101450.78;;;12.80;85.84
818;BME280;391;51.052;6.954;2023-05-02T05:12:09;101446.34;;;12.77;85.83
818;BME280;391;51.052;6.954;2023-05-02T05:14:13;101449.75;;;12.74;86.01
818;BME280;391;51.052;6.954;2023-05-02T05:16:19;101451.16;;;12.63;86.01
818;BME280;391;51.052;6.954;2023-05-02T05:18:23;101449.28;;;12.59;86.20
818;BME280;391;51.052;6.954;2023-05-02T05:20:27;101445.72;;;12.57;86.32
818;BME280;391;51.052;6.954;2023-05-02T05:22:39;101461.66;;;12.65;86.44
818;BME280;391;51.052;6.954;2023-05-02T05:24:50;101454.75;;;12.67;86.32
818;BME280;391;51.052;6.954;2023-05-02T05:26:54;101464.09;;;12.59;86.36
818;BME280;391;51.052;6.954;2023-05-02T05:28:58;101452.59;;;12.54;86.38
818;BME280;391;51.052;6.954;2023-05-02T05:31:07;101462.06;;;12.50;86.72
818;BME280;391;51.052;6.954;2023-05-02T05:33:12;101465.63;;;12.52;86.66
818;BME280;391;51.052;6.954;2023-05-02T05:35:16;101467.41;;;12.53;86.71
818;BME280;391;51.052;6.954;2023-05-02T05:37:20;101479.72;;;12.57;86.72
818;BME280;391;51.052;6.954;2023-05-02T05:39:25;101474.72;;;12.63;86.85
818;BME280;391;51.052;6.954;2023-05-02T05:41:30;101477.78;;;12.52;86.76
818;BME280;391;51.052;6.954;2023-05-02T05:43:39;101485.19;;;12.38;87.29
818;BME280;391;51.052;6.954;2023-05-02T05:45:43;101483.72;;;12.46;87.54
818;BME280;391;51.052;6.954;2023-05-02T05:47:47;101481.50;;;12.58;87.65
818;BME280;391;51.052;6.954;2023-05-02T05:49:52;101486.00;;;12.62;87.55
818;BME280;391;51.052;6.954;2023-05-02T05:51:59;101493.13;;;12.66;87.39
818;BME280;391;51.052;6.954;2023-05-02T05:54:03;101491.34;;;12.65;87.36
818;BME280;391;51.052;6.954;2023-05-02T05:56:09;101497.47;;;12.66;87.33
818;BME280;391;51.052;6.954;2023-05-02T05:58:15;101504.22;;;12.59;87.36
818;BME280;391;51.052;6.954;2023-05-02T06:00:19;101502.34;;;12.55;87.48
818;BME280;391;51.052;6.954;2023-05-02T06:02:26;101479.19;;;12.41;87.48
818;BME280;391;51.052;6.954;2023-05-02T06:04:30;101469.94;;;12.25;87.78
818;BME280;391;51.052;6.954;2023-05-02T06:06:34;101509.88;;;12.46;88.03
818;BME280;391;51.052;6.954;2023-05-02T06:08:37;101514.91;;;12.40;88.20
818;BME280;391;51.052;6.954;2023-05-02T06:10:40;101511.03;;;12.29;89.04
818;BME280;391;51.052;6.954;2023-05-02T06:12:45;101523.38;;;12.33;89.20
818;BME280;391;51.052;6.954;2023-05-02T06:14:52;101517.41;;;12.37;89.58
818;BME280;391;51.052;6.954;2023-05-02T06:16:58;101516.22;;;12.28;89.72
818;BME280;391;51.052;6.954;2023-05-02T06:19:02;101516.31;;;12.31;90.75
818;BME280;391;51.052;6.954;2023-05-02T06:21:05;101510.03;;;12.26;90.73
818;BME280;391;51.052;6.954;2023-05-02T06:23:09;101523.78;;;12.45;92.39
818;BME280;391;51.052;6.954;2023-05-02T06:25:13;101428.00;;;11.97;91.62
818;BME280;391;51.052;6.954;2023-05-02T06:27:16;101534.88;;;12.63;91.79
818;BME280;391;51.052;6.954;2023-05-02T06:29:21;101525.38;;;12.67;91.69
818;BME280;391;51.052;6.954;2023-05-02T06:31:25;101535.19;;;12.72;91.49
818;BME280;391;51.052;6.954;2023-05-02T06:33:28;101517.81;;;12.49;90.92
818;BME280;391;51.052;6.954;2023-05-02T06:35:32;101544.69;;;12.44;91.28
818;BME280;391;51.052;6.954;2023-05-02T06:37:35;101537.47;;;12.38;91.50
818;BME280;391;51.052;6.954;2023-05-02T06:39:38;101559.59;;;12.48;91.21
818;BME280;391;51.052;6.954;2023-05-02T06:41:42;101563.00;;;12.45;91.34
818;BME280;391;51.052;6.954;2023-05-02T06:43:50;101556.28;;;12.27;91.99
818;BME280;391;51.052;6.954;2023-05-02T06:45:55;101567.00;;;12.34;91.94
818;BME280;391;51.052;6.954;2023-05-02T06:47:59;101563.81;;;12.43;92.01
818;BME280;391;51.052;6.954;2023-05-02T06:50:02;101571.13;;;12.53;92.01
818;BME280;391;51.052;6.954;2023-05-02T06:52:06;101579.13;;;12.57;92.12
818;BME280;391;51.052;6.954;2023-05-02T06:54:09;101561.41;;;12.49;92.27
818;BME280;391;51.052;6.954;2023-05-02T06:56:13;101579.22;;;12.60;92.27
818;BME280;391;51.052;6.954;2023-05-02T06:58:16;101576.41;;;12.54;92.31
818;BME280;391;51.052;6.954;2023-05-02T07:00:20;101593.91;;;12.55;92.62
818;BME280;391;51.052;6.954;2023-05-02T07:02:25;101579.56;;;12.44;92.63
818;BME280;391;51.052;6.954;2023-05-02T07:04:28;101589.59;;;12.57;92.61
818;BME280;391;51.052;6.954;2023-05-02T07:06:32;101593.19;;;12.61;92.33
818;BME280;391;51.052;6.954;2023-05-02T07:08:35;101599.19;;;12.57;92.19
818;BME280;391;51.052;6.954;2023-05-02T07:10:39;101606.88;;;12.52;92.13
818;BME280;391;51.052;6.954;2023-05-02T07:12:43;101603.03;;;12.43;92.11
818;BME280;391;51.052;6.954;2023-05-02T07:14:46;101582.03;;;12.16;91.75
818;BME280;391;51.052;6.954;2023-05-02T07:16:49;101618.84;;;12.22;91.82
818;BME280;391;51.052;6.954;2023-05-02T07:18:54;101618.41;;;12.10;91.28
818;BME280;391;51.052;6.954;2023-05-02T07:20:58;101619.16;;;12.06;91.15
818;BME280;391;51.052;6.954;2023-05-02T07:23:02;101621.81;;;12.07;91.04
818;BME280;391;51.052;6.954;2023-05-02T07:25:06;101611.22;;;12.04;90.87
818;BME280;391;51.052;6.954;2023-05-02T07:27:11;101626.69;;;12.22;90.64
818;BME280;391;51.052;6.954;2023-05-02T07:29:15;101631.16;;;12.25;90.54
818;BME280;391;51.052;6.954;2023-05-02T07:31:18;101636.50;;;12.28;90.63
818;BME280;391;51.052;6.954;2023-05-02T07:33:22;101627.78;;;12.29;90.46
818;BME280;391;51.052;6.954;2023-05-02T07:35:26;101628.91;;;12.35;90.16
818;BME280;391;51.052;6.954;2023-05-02T07:37:31;101634.22;;;12.37;90.05
818;BME280;391;51.052;6.954;2023-05-02T07:39:35;101638.84;;;12.44;90.09
818;BME280;391;51.052;6.954;2023-05-02T07:41:39;101539.03;;;11.84;89.53
818;BME280;391;51.052;6.954;2023-05-02T07:43:42;101630.69;;;12.36;89.72
818;BME280;391;51.052;6.954;2023-05-02T07:45:46;101653.84;;;12.49;89.20
818;BME280;391;51.052;6.954;2023-05-02T07:47:49;101656.47;;;12.49;89.29
818;BME280;391;51.052;6.954;2023-05-02T07:49:53;101653.63;;;12.43;88.66
818;BME280;391;51.052;6.954;2023-05-02T07:51:58;101659.91;;;12.48;88.86
818;BME280;391;51.052;6.954;2023-05-02T07:54:02;101660.09;;;12.53;88.60
818;BME280;391;51.052;6.954;2023-05-02T07:56:06;101668.34;;;12.65;88.53
818;BME280;391;51.052;6.954;2023-05-02T07:58:10;101659.81;;;12.70;88.22
818;BME280;391;51.052;6.954;2023-05-02T08:00:14;101657.28;;;12.72;87.76
818;BME280;391;51.052;6.954;2023-05-02T08:02:18;101606.28;;;12.36;87.56
818;BME280;391;51.052;6.954;2023-05-02T08:04:25;101677.25;;;12.70;87.46
818;BME280;391;51.052;6.954;2023-05-02T08:06:28;101660.34;;;12.60;86.80
818;BME280;391;51.052;6.954;2023-05-02T08:08:33;101670.88;;;12.62;86.77
818;BME280;391;51.052;6.954;2023-05-02T08:10:36;101663.53;;;12.52;86.00
818;BME280;391;51.052;6.954;2023-05-02T08:12:40;101660.13;;;12.54;85.80
818;BME280;391;51.052;6.954;2023-05-02T08:14:44;101680.50;;;12.63;85.35
818;BME280;391;51.052;6.954;2023-05-02T08:16:47;101676.28;;;12.66;85.04
818;BME280;391;51.052;6.954;2023-05-02T08:18:51;101683.59;;;12.77;84.81
818;BME280;391;51.052;6.954;2023-05-02T08:20:55;101675.84;;;12.80;84.37
818;BME280;391;51.052;6.954;2023-05-02T08:22:59;101673.28;;;12.81;84.30
818;BME280;391;51.052;6.954;2023-05-02T08:25:05;101681.31;;;12.86;83.93
818;BME280;391;51.052;6.954;2023-05-02T08:27:08;101684.75;;;12.85;83.41
818;BME280;391;51.052;6.954;2023-05-02T08:29:11;101652.38;;;12.57;83.18
818;BME280;391;51.052;6.954;2023-05-02T08:31:15;101691.78;;;12.86;83.20
818;BME280;391;51.052;6.954;2023-05-02T08:33:18;101690.28;;;12.92;82.78
818;BME280;391;51.052;6.954;2023-05-02T08:35:22;101691.25;;;12.96;82.75
818;BME280;391;51.052;6.954;2023-05-02T08:37:25;101707.16;;;13.02;82.42
818;BME280;391;51.052;6.954;2023-05-02T08:39:31;101699.25;;;13.00;81.98
818;BME280;391;51.052;6.954;2023-05-02T08:41:37;101708.53;;;12.91;81.64
818;BME280;391;51.052;6.954;2023-05-02T08:43:40;101720.56;;;12.86;81.44
818;BME280;391;51.052;6.954;2023-05-02T08:45:44;101716.56;;;12.71;81.92
818;BME280;391;51.052;6.954;2023-05-02T08:47:48;101722.69;;;12.72;82.05
818;BME280;391;51.052;6.954;2023-05-02T08:49:54;101727.28;;;12.54;81.34
818;BME280;391;51.052;6.954;2023-05-02T08:51:59;101725.78;;;12.38;81.14
818;BME280;391;51.052;6.954;2023-05-02T08:54:05;101729.56;;;12.23;80.82
818;BME280;391;51.052;6.954;2023-05-02T08:56:11;101728.63;;;12.20;80.73
818;BME280;391;51.052;6.954;2023-05-02T08:58:16;101742.41;;;12.16;80.44
818;BME280;391;51.052;6.954;2023-05-02T09:00:20;101735.22;;;12.11;79.98
818;BME280;391;51.052;6.954;2023-05-02T09:02:35;101739.75;;;12.15;79.97
818;BME280;391;51.052;6.954;2023-05-02T09:04:41;101740.25;;;12.06;79.70
818;BME280;391;51.052;6.954;2023-05-02T09:06:45;101752.69;;;12.12;79.87
818;BME280;391;51.052;6.954;2023-05-02T09:08:50;101750.00;;;12.10;79.92
818;BME280;391;51.052;6.954;2023-05-02T09:10:54;101756.16;;;12.12;79.80
818;BME280;391;51.052;6.954;2023-05-02T09:15:31;101761.41;;;12.12;79.75
818;BME280;391;51.052;6.954;2023-05-02T09:17:39;101748.47;;;11.93;79.26
818;BME280;391;51.052;6.954;2023-05-02T09:19:42;101767.84;;;11.98;79.21
818;BME280;391;51.052;6.954;2023-05-02T09:21:46;101769.66;;;12.01;78.96
818;BME280;391;51.052;6.954;2023-05-02T09:23:51;101775.78;;;12.01;78.81
818;BME280;391;51.052;6.954;2023-05-02T09:25:54;101770.38;;;11.97;78.52
818;BME280;391;51.052;6.954;2023-05-02T09:27:58;101778.16;;;11.95;78.09
818;BME280;391;51.052;6.954;2023-05-02T09:30:19;101782.31;;;12.12;78.06
818;BME280;391;51.052;6.954;2023-05-02T09:32:43;101781.50;;;12.13;77.24
818;BME280;391;51.052;6.954;2023-05-02T09:35:05;101795.03;;;12.03;76.75
818;BME280;391;51.052;6.954;2023-05-02T09:37:08;101785.59;;;12.07;77.28
818;BME280;391;51.052;6.954;2023-05-02T09:39:13;101780.31;;;12.05;77.19
818;BME280;391;51.052;6.954;2023-05-02T09:41:17;101778.19;;;12.17;77.04
818;BME280;391;51.052;6.954;2023-05-02T09:43:22;101796.50;;;12.41;76.77
818;BME280;391;51.052;6.954;2023-05-02T09:45:25;101749.56;;;12.22;76.01
818;BME280;391;51.052;6.954;2023-05-02T09:47:30;101800.16;;;12.45;75.69
818;BME280;391;51.052;6.954;2023-05-02T09:49:38;101803.06;;;12.52;75.62
818;BME280;391;51.052;6.954;2023-05-02T09:51:42;101792.81;;;12.58;75.73
818;BME280;391;51.052;6.954;2023-05-02T09:53:46;101801.41;;;12.78;75.55
818;BME280;391;51.052;6.954;2023-05-02T09:55:58;101811.00;;;12.78;74.79
818;BME280;391;51.052;6.954;2023-05-02T09:58:03;101807.06;;;12.89;74.99
818;BME280;391;51.052;6.954;2023-05-02T10:00:08;101810.03;;;12.99;74.38
818;BME280;391;51.052;6.954;2023-05-02T10:02:13;101810.03;;;12.99;73.30
818;BME280;391;51.052;6.954;2023-05-02T10:04:18;101817.97;;;13.01;73.06
818;BME280;391;51.052;6.954;2023-05-02T10:06:22;101811.88;;;13.02;72.46
818;BME280;391;51.052;6.954;2023-05-02T10:08:27;101819.69;;;13.00;71.18
818;BME280;391;51.052;6.954;2023-05-02T10:10:31;101816.41;;;13.06;71.36
818;BME280;391;51.052;6.954;2023-05-02T10:12:36;101824.50;;;13.12;70.73
818;BME280;391;51.052;6.954;2023-05-02T10:14:47;101788.69;;;13.11;70.66
818;BME280;391;51.052;6.954;2023-05-02T10:16:54;101822.69;;;13.35;70.69
818;BME280;391;51.052;6.954;2023-05-02T10:19:06;101826.59;;;13.46;70.58
818;BME280;391;51.052;6.954;2023-05-02T10:21:15;101809.56;;;13.33;70.13
818;BME280;391;51.052;6.954;2023-05-02T10:23:20;101828.84;;;13.35;69.84
818;BME280;391;51.052;6.954;2023-05-02T10:25:24;101832.28;;;13.34;70.11
818;BME280;391;51.052;6.954;2023-05-02T10:27:28;101832.13;;;13.30;69.82
818;BME280;391;51.052;6.954;2023-05-02T10:29:32;101833.25;;;13.36;70.17
818;BME280;391;51.052;6.954;2023-05-02T10:31:37;101842.09;;;13.40;69.71
818;BME280;391;51.052;6.954;2023-05-02T10:33:45;101840.34;;;13.40;69.25
818;BME280;391;51.052;6.954;2023-05-02T10:35:51;101841.91;;;13.34;68.71
818;BME280;391;51.052;6.954;2023-05-02T10:37:57;101842.25;;;13.44;68.48
818;BME280;391;51.052;6.954;2023-05-02T10:40:03;101849.50;;;13.51;67.41
818;BME280;391;51.052;6.954;2023-05-02T10:42:08;101844.25;;;13.51;66.30
818;BME280;391;51.052;6.954;2023-05-02T10:44:12;101845.06;;;13.50;65.62
818;BME280;391;51.052;6.954;2023-05-02T10:46:32;101839.72;;;13.47;65.09
818;BME280;391;51.052;6.954;2023-05-02T10:48:36;101842.63;;;13.55;64.87
818;BME280;391;51.052;6.954;2023-05-02T10:50:42;101838.91;;;13.48;64.53
818;BME280;391;51.052;6.954;2023-05-02T10:52:47;101832.84;;;13.49;64.66
818;BME280;391;51.052;6.954;2023-05-02T10:55:12;101845.38;;;13.59;64.24
818;BME280;391;51.052;6.954;2023-05-02T10:57:16;101836.19;;;13.70;64.43
818;BME280;391;51.052;6.954;2023-05-02T10:59:27;101844.25;;;13.76;64.29
818;BME280;391;51.052;6.954;2023-05-02T11:01:36;101820.34;;;13.67;64.36
818;BME280;391;51.052;6.954;2023-05-02T11:03:56;101839.59;;;13.95;63.95
818;BME280;391;51.052;6.954;2023-05-02T11:06:06;101831.69;;;14.20;64.02
818;BME280;391;51.052;6.954;2023-05-02T11:08:29;101843.72;;;14.40;63.24
818;BME280;391;51.052;6.954;2023-05-02T11:10:34;101806.28;;;14.46;62.46
818;BME280;391;51.052;6.954;2023-05-02T11:12:44;101843.06;;;14.75;61.08
818;BME280;391;51.052;6.954;2023-05-02T11:14:49;101843.16;;;14.78;60.78
818;BME280;391;51.052;6.954;2023-05-02T11:17:07;101842.56;;;14.89;60.52
818;BME280;391;51.052;6.954;2023-05-02T11:19:11;101846.91;;;14.87;60.47
818;BME280;391;51.052;6.954;2023-05-02T11:21:27;101839.03;;;14.87;60.49
818;BME280;391;51.052;6.954;2023-05-02T11:23:31;101837.41;;;14.92;60.52
818;BME280;391;51.052;6.954;2023-05-02T11:25:41;101828.63;;;14.91;60.19
818;BME280;391;51.052;6.954;2023-05-02T11:27:44;101839.13;;;14.90;59.56
818;BME280;391;51.052;6.954;2023-05-02T11:29:50;101834.28;;;14.75;58.51
818;BME280;391;51.052;6.954;2023-05-02T11:31:54;101835.34;;;14.81;58.89
818;BME280;391;51.052;6.954;2023-05-02T11:33:58;101809.19;;;14.84;59.13
818;BME280;391;51.052;6.954;2023-05-02T11:36:02;101832.66;;;15.08;58.73
818;BME280;391;51.052;6.954;2023-05-02T11:38:09;101826.59;;;15.11;58.15